createdAt,value
2019-05-07T00:00:15.076Z,9.02
2019-05-07T00:06:23.107Z,8.97
2019-05-07T00:12:29.080Z,8.94
2019-05-07T00:18:34.977Z,8.91
2019-05-07T00:24:42.638Z,8.78
2019-05-07T00:30:48.538Z,8.78
2019-05-07T00:37:06.727Z,8.55
2019-05-07T00:43:22.518Z,8.40
2019-05-07T00:49:29.469Z,8.37
2019-05-07T00:55:35.628Z,8.36
2019-05-07T01:01:43.253Z,8.49
2019-05-07T01:07:49.279Z,8.60
2019-05-07T01:13:55.168Z,8.57
2019-05-07T01:20:02.904Z,8.40
2019-05-07T01:26:09.431Z,8.28
2019-05-07T01:32:36.570Z,8.24
2019-05-07T01:38:43.192Z,8.20
2019-05-07T01:44:48.974Z,8.15
2019-05-07T01:50:54.748Z,8.06
2019-05-07T01:57:02.621Z,8.00
2019-05-07T02:03:26.736Z,7.89
2019-05-07T02:09:51.993Z,7.81
2019-05-07T02:16:01.231Z,7.66
2019-05-07T02:22:05.298Z,7.64
2019-05-07T02:28:12.854Z,7.46
2019-05-07T02:34:23.208Z,7.51
2019-05-07T02:40:36.147Z,7.46
2019-05-07T02:53:33.730Z,7.28
2019-05-07T02:59:39.235Z,7.08
2019-05-07T03:05:45.100Z,7.02
2019-05-07T03:11:52.902Z,7.08
2019-05-07T03:17:58.442Z,6.91
2019-05-07T03:24:14.079Z,6.97
2019-05-07T03:30:46.072Z,7.05
2019-05-07T03:36:56.563Z,6.98
2019-05-07T03:43:02.850Z,6.84
2019-05-07T03:49:09.688Z,6.85
2019-05-07T03:55:16.258Z,6.79
2019-05-07T04:01:24.074Z,6.83
2019-05-07T04:07:29.587Z,6.77
2019-05-07T04:13:35.634Z,6.70
2019-05-07T04:19:44.129Z,6.65
2019-05-07T04:26:04.408Z,6.64
2019-05-07T04:32:10.485Z,6.75
2019-05-07T04:38:17.564Z,6.72
2019-05-07T04:44:23.741Z,6.78
2019-05-07T04:50:39.411Z,6.87
2019-05-07T04:56:39.610Z,6.88
2019-05-07T05:03:03.433Z,6.94
2019-05-07T05:09:12.347Z,6.99
2019-05-07T05:15:18.547Z,7.02
2019-05-07T05:21:33.625Z,7.16
2019-05-07T05:27:40.051Z,7.23
2019-05-07T05:33:45.981Z,7.32
2019-05-07T05:40:04.799Z,7.41
2019-05-07T05:46:02.698Z,7.46
2019-05-07T05:52:19.035Z,7.58
2019-05-07T05:58:39.409Z,7.81
2019-05-07T06:04:53.677Z,7.98
2019-05-07T06:11:23.347Z,8.20
2019-05-07T06:17:49.128Z,8.42
2019-05-07T06:23:57.850Z,8.58
2019-05-07T06:30:05.079Z,8.84
2019-05-07T06:36:12.549Z,8.97
2019-05-07T06:42:49.773Z,9.08
2019-05-07T06:48:56.875Z,9.25
2019-05-07T06:55:03.371Z,9.43
2019-05-07T07:01:20.111Z,9.70
2019-05-07T07:07:42.233Z,9.89
2019-05-07T07:13:48.079Z,10.25
2019-05-07T07:19:54.155Z,10.45
2019-05-07T07:26:00.013Z,10.71
2019-05-07T07:32:07.090Z,10.73
2019-05-07T07:38:32.699Z,11.05
2019-05-07T07:44:38.164Z,11.15
2019-05-07T07:50:44.115Z,11.23
2019-05-07T07:57:05.111Z,11.32
2019-05-07T08:03:13.386Z,11.52
2019-05-07T08:09:19.400Z,11.98
2019-05-07T08:15:25.443Z,12.31
2019-05-07T08:21:33.202Z,12.28
2019-05-07T08:27:39.212Z,12.27
2019-05-07T08:33:55.198Z,12.16
2019-05-07T08:40:03.125Z,12.17
2019-05-07T08:46:32.860Z,12.32
2019-05-07T08:52:38.857Z,12.40
2019-05-07T08:58:44.987Z,12.12
2019-05-07T09:04:52.317Z,11.55
2019-05-07T09:10:58.515Z,10.88
2019-05-07T09:17:04.779Z,10.60
2019-05-07T09:23:12.258Z,10.66
2019-05-07T09:29:43.309Z,10.81
2019-05-07T09:35:52.882Z,11.17
2019-05-07T09:42:02.166Z,11.45
2019-05-07T09:48:06.805Z,11.56
2019-05-07T09:54:12.799Z,11.80
2019-05-07T10:00:20.189Z,12.12
2019-05-07T10:06:26.205Z,12.58
2019-05-07T10:12:42.063Z,12.65
2019-05-07T10:18:47.948Z,12.75
2019-05-07T10:24:53.840Z,12.78
2019-05-07T10:30:59.740Z,12.97
2019-05-07T10:37:05.846Z,12.96
2019-05-07T10:43:12.208Z,13.18
2019-05-07T10:49:31.831Z,13.20
2019-05-07T10:55:37.799Z,13.42
2019-05-07T11:01:52.320Z,13.64
2019-05-07T11:07:58.302Z,13.77
2019-05-07T11:14:04.746Z,13.96
2019-05-07T11:20:12.816Z,14.07
2019-05-07T11:26:19.470Z,13.94
2019-05-07T11:32:25.311Z,13.81
2019-05-07T11:38:33.343Z,13.71
2019-05-07T11:44:39.969Z,13.47
2019-05-07T11:51:03.089Z,13.37
2019-05-07T11:57:02.490Z,13.37
2019-05-07T12:03:08.447Z,13.51
2019-05-07T12:09:16.089Z,13.61
2019-05-07T12:15:22.724Z,13.81
2019-05-07T12:21:28.550Z,13.94
2019-05-07T12:27:34.381Z,13.93
2019-05-07T12:33:59.349Z,14.03
2019-05-07T12:40:07.228Z,14.10
2019-05-07T12:46:13.168Z,14.21
2019-05-07T12:52:31.905Z,14.17
2019-05-07T12:58:37.539Z,14.54
2019-05-07T13:04:44.666Z,14.65
2019-05-07T13:10:51.870Z,14.41
2019-05-07T13:16:57.988Z,14.41
2019-05-07T13:23:04.307Z,14.67
2019-05-07T13:29:10.121Z,14.83
2019-05-07T13:35:16.552Z,14.91
2019-05-07T13:41:44.122Z,14.86
2019-05-07T13:47:55.876Z,14.82
2019-05-07T13:54:02.221Z,14.76
2019-05-07T14:00:14.116Z,14.90
2019-05-07T14:06:37.462Z,14.96
2019-05-07T14:12:43.924Z,15.28
2019-05-07T14:18:49.998Z,15.55
2019-05-07T14:24:56.156Z,16.04
2019-05-07T14:31:02.070Z,16.10
2019-05-07T14:37:25.346Z,16.20
2019-05-07T14:43:38.183Z,16.12
2019-05-07T14:49:44.392Z,15.76
2019-05-07T14:55:50.251Z,15.79
2019-05-07T15:01:56.233Z,15.57
2019-05-07T15:08:10.475Z,15.25
2019-05-07T15:14:12.008Z,15.20
2019-05-07T15:20:18.534Z,15.29
2019-05-07T15:26:24.618Z,15.24
2019-05-07T15:32:32.337Z,15.25
2019-05-07T15:38:38.200Z,15.18
2019-05-07T15:44:44.009Z,15.37
2019-05-07T15:50:51.855Z,15.47
2019-05-07T15:57:01.807Z,15.68
2019-05-07T16:03:12.425Z,16.04
2019-05-07T16:09:18.250Z,16.69
2019-05-07T16:15:24.332Z,17.21
2019-05-07T16:21:32.298Z,17.63
2019-05-07T16:27:42.609Z,17.50
2019-05-07T16:33:48.377Z,17.42
2019-05-07T16:39:54.317Z,17.25
2019-05-07T16:46:02.304Z,17.69
2019-05-07T16:52:08.091Z,17.55
2019-05-07T16:58:35.071Z,17.60
2019-05-07T17:04:43.055Z,16.99
2019-05-07T17:10:48.862Z,16.76
2019-05-07T17:16:54.877Z,16.74
2019-05-07T17:23:02.750Z,16.71
2019-05-07T17:29:08.252Z,16.43
2019-05-07T17:35:14.809Z,16.37
2019-05-07T17:41:24.806Z,16.32
2019-05-07T17:47:28.388Z,16.24
2019-05-07T17:53:34.184Z,16.07
2019-05-07T17:59:42.107Z,15.70
2019-05-07T18:05:47.845Z,15.45
2019-05-07T18:11:53.815Z,15.10
2019-05-07T18:18:04.413Z,14.77
2019-05-07T18:24:15.910Z,14.45
2019-05-07T18:30:18.835Z,14.21
2019-05-07T18:36:24.919Z,13.87
2019-05-07T18:42:32.709Z,13.72
2019-05-07T18:48:39.435Z,13.45
2019-05-07T18:54:47.932Z,13.22
2019-05-07T19:00:56.828Z,13.08
2019-05-07T19:07:03.084Z,12.77
2019-05-07T19:13:09.211Z,12.39
2019-05-07T19:19:15.657Z,12.08
2019-05-07T19:25:21.500Z,11.95
2019-05-07T19:31:27.689Z,11.85
2019-05-07T19:37:33.633Z,11.54
2019-05-07T19:43:41.781Z,11.31
2019-05-07T19:49:47.501Z,11.19
2019-05-07T19:56:09.030Z,10.95
2019-05-07T20:02:18.200Z,10.78
2019-05-07T20:08:24.367Z,10.61
2019-05-07T20:14:32.590Z,10.38
2019-05-07T20:20:38.421Z,10.17
2019-05-07T20:26:44.542Z,9.92
2019-05-07T20:32:52.303Z,9.88
2019-05-07T20:38:59.123Z,9.84
2019-05-07T20:45:05.848Z,9.64
2019-05-07T20:51:12.710Z,9.51
2019-05-07T20:57:22.469Z,9.35
2019-05-07T21:03:28.543Z,9.24
2019-05-07T21:09:34.379Z,9.05
2019-05-07T21:15:41.897Z,8.96
2019-05-07T21:21:47.893Z,8.71
2019-05-07T21:27:55.990Z,8.65
2019-05-07T21:34:03.109Z,8.57
2019-05-07T21:40:09.434Z,8.50
2019-05-07T21:46:15.410Z,8.42
2019-05-07T21:52:22.176Z,8.32
2019-05-07T21:58:35.338Z,8.22
2019-05-07T22:04:42.165Z,8.07
2019-05-07T22:10:48.527Z,8.01
2019-05-07T22:16:54.698Z,8.04
2019-05-07T22:23:02.712Z,8.09
2019-05-07T22:29:08.302Z,7.99
2019-05-07T22:35:24.125Z,7.98
2019-05-07T22:41:31.878Z,7.96
2019-05-07T22:47:38.087Z,8.04
2019-05-07T22:53:43.918Z,8.10
2019-05-07T22:59:49.940Z,8.09
2019-05-07T23:05:57.365Z,8.08
2019-05-07T23:12:03.127Z,8.17
2019-05-07T23:18:08.869Z,8.15
2019-05-07T23:24:14.986Z,8.19
2019-05-07T23:30:22.354Z,8.23
2019-05-07T23:36:28.313Z,8.28
2019-05-07T23:42:36.732Z,8.29
2019-05-07T23:48:42.771Z,8.35
2019-05-07T23:54:49.032Z,8.37
